createdAt,value
2019-04-25T00:01:11.572Z,21.69
2019-04-25T00:03:42.564Z,21.68
2019-04-25T00:06:12.577Z,21.66
2019-04-25T00:08:43.059Z,21.63
2019-04-25T00:11:13.059Z,21.61
2019-04-25T00:13:43.226Z,21.58
2019-04-25T00:16:13.080Z,21.58
2019-04-25T00:18:42.848Z,21.56
2019-04-25T00:21:22.665Z,21.54
2019-04-25T00:23:56.112Z,21.51
2019-04-25T00:26:43.224Z,21.50
2019-04-25T00:29:13.211Z,21.50
2019-04-25T00:31:43.717Z,21.48
2019-04-25T00:34:12.903Z,21.46
2019-04-25T00:36:43.532Z,21.43
2019-04-25T00:39:12.543Z,21.41
2019-04-25T00:41:44.344Z,21.39
2019-04-25T00:44:12.392Z,21.38
2019-04-25T00:46:44.798Z,21.36
2019-04-25T00:49:12.317Z,21.35
2019-04-25T00:51:42.573Z,21.32
2019-04-25T00:54:12.049Z,21.32
2019-04-25T00:56:43.292Z,21.31
2019-04-25T00:59:17.401Z,21.28
2019-04-25T01:02:17.828Z,21.26
2019-04-25T01:04:47.224Z,21.23
2019-04-25T01:07:16.415Z,21.21
2019-04-25T01:09:45.717Z,21.19
2019-04-25T01:12:14.918Z,21.17
2019-04-25T01:14:44.261Z,21.15
2019-04-25T01:17:14.240Z,21.13
2019-04-25T01:19:44.924Z,21.12
2019-04-25T01:22:14.447Z,21.10
2019-04-25T01:24:43.947Z,21.07
2019-04-25T01:27:13.560Z,21.06
2019-04-25T01:29:44.405Z,21.03
2019-04-25T01:32:16.706Z,21.02
2019-04-25T01:35:05.231Z,21.00
2019-04-25T01:37:51.109Z,20.98
2019-04-25T01:40:39.502Z,20.97
2019-04-25T01:43:39.574Z,20.92
2019-04-25T01:46:08.768Z,20.91
2019-04-25T01:48:37.875Z,20.89
2019-04-25T01:51:06.841Z,20.89
2019-04-25T01:53:35.936Z,20.84
2019-04-25T01:56:07.597Z,20.83
2019-04-25T01:58:35.442Z,20.82
2019-04-25T02:01:04.666Z,20.78
2019-04-25T02:03:34.253Z,20.76
2019-04-25T02:06:05.074Z,20.73
2019-04-25T02:08:34.449Z,20.74
2019-04-25T02:11:16.444Z,20.70
2019-04-25T02:13:45.479Z,20.69
2019-04-25T02:16:14.466Z,20.65
2019-04-25T02:18:43.643Z,20.65
2019-04-25T02:21:13.727Z,20.62
2019-04-25T02:23:42.159Z,20.60
2019-04-25T02:26:15.937Z,20.57
2019-04-25T02:28:43.315Z,20.55
2019-04-25T02:31:15.366Z,20.54
2019-04-25T02:33:44.251Z,20.54
2019-04-25T02:36:14.461Z,20.52
2019-04-25T02:38:44.258Z,20.48
2019-04-25T02:41:14.808Z,20.45
2019-04-25T02:43:45.009Z,20.45
2019-04-25T02:46:31.861Z,20.40
2019-04-25T02:49:29.966Z,20.38
2019-04-25T02:52:13.100Z,20.37
2019-04-25T02:54:40.411Z,20.33
2019-04-25T02:57:09.334Z,20.30
2019-04-25T02:59:38.193Z,20.28
2019-04-25T03:02:09.093Z,20.27
2019-04-25T03:04:37.770Z,20.27
2019-04-25T03:07:10.532Z,20.25
2019-04-25T03:09:37.486Z,20.23
2019-04-25T03:12:08.106Z,20.20
2019-04-25T03:14:37.129Z,20.19
2019-04-25T03:17:08.656Z,20.18
2019-04-25T03:19:59.894Z,20.16
2019-04-25T03:22:30.516Z,20.15
2019-04-25T03:25:00.261Z,20.13
2019-04-25T03:27:30.247Z,20.09
2019-04-25T03:29:59.748Z,20.09
2019-04-25T03:32:28.714Z,20.09
2019-04-25T03:34:57.899Z,20.05
2019-04-25T03:37:26.793Z,20.01
2019-04-25T03:39:55.854Z,20.01
2019-04-25T03:42:24.757Z,19.99
2019-04-25T03:44:53.922Z,19.95
2019-04-25T03:47:23.554Z,19.95
2019-04-25T03:49:55.101Z,19.92
2019-04-25T03:52:23.894Z,19.90
2019-04-25T03:54:53.433Z,19.86
2019-04-25T03:57:23.245Z,19.83
2019-04-25T03:59:53.639Z,19.82
2019-04-25T04:02:23.364Z,19.81
2019-04-25T04:04:53.766Z,19.79
2019-04-25T04:07:23.774Z,19.76
2019-04-25T04:09:53.308Z,19.77
2019-04-25T04:12:24.319Z,19.74
2019-04-25T04:14:53.815Z,19.74
2019-04-25T04:17:31.031Z,19.71
2019-04-25T04:20:17.517Z,19.67
2019-04-25T04:22:59.414Z,19.63
2019-04-25T04:25:28.441Z,19.60
2019-04-25T04:27:57.496Z,19.60
2019-04-25T04:30:26.593Z,19.59
2019-04-25T04:32:55.489Z,19.58
2019-04-25T04:35:24.605Z,19.59
2019-04-25T04:37:54.195Z,19.57
2019-04-25T04:40:24.274Z,19.56
2019-04-25T04:42:53.360Z,19.53
2019-04-25T04:45:23.245Z,19.51
2019-04-25T04:47:53.338Z,19.48
2019-04-25T04:50:23.280Z,19.47
2019-04-25T04:52:54.023Z,19.48
2019-04-25T04:55:23.307Z,19.48
2019-04-25T04:57:52.244Z,19.48
2019-04-25T05:00:23.183Z,19.46
2019-04-25T05:03:02.295Z,19.45
2019-04-25T05:05:50.266Z,19.45
2019-04-25T05:08:25.013Z,19.45
2019-04-25T05:10:55.046Z,19.47
2019-04-25T05:13:24.674Z,19.47
2019-04-25T05:15:53.685Z,19.45
2019-04-25T05:18:36.593Z,19.46
2019-04-25T05:20:54.296Z,19.45
2019-04-25T05:23:24.793Z,19.47
2019-04-25T05:25:55.658Z,19.47
2019-04-25T05:28:24.696Z,19.48
2019-04-25T05:31:03.801Z,19.42
2019-04-25T05:33:33.802Z,19.35
2019-04-25T05:36:03.750Z,19.37
2019-04-25T05:38:33.416Z,19.39
2019-04-25T05:41:11.458Z,19.22
2019-04-25T05:43:41.316Z,18.93
2019-04-25T05:46:11.348Z,18.86
2019-04-25T05:48:40.372Z,18.70
2019-04-25T05:51:09.446Z,18.55
2019-04-25T05:53:38.515Z,18.49
2019-04-25T05:56:07.443Z,18.48
2019-04-25T05:58:36.398Z,18.46
2019-04-25T06:01:05.596Z,18.17
2019-04-25T06:03:34.491Z,18.14
2019-04-25T06:06:03.548Z,17.83
2019-04-25T06:08:34.229Z,17.86
2019-04-25T06:11:15.980Z,17.91
2019-04-25T06:13:50.326Z,18.09
2019-04-25T06:16:28.283Z,18.33
2019-04-25T06:19:14.021Z,18.72
2019-04-25T06:21:40.622Z,19.09
2019-04-25T06:24:21.390Z,19.29
2019-04-25T06:27:18.136Z,19.48
2019-04-25T06:29:58.148Z,19.60
2019-04-25T06:32:21.459Z,19.62
2019-04-25T06:34:50.683Z,19.67
2019-04-25T06:37:21.209Z,19.68
2019-04-25T06:39:50.478Z,19.34
2019-04-25T06:42:21.032Z,19.04
2019-04-25T06:44:56.689Z,18.81
2019-04-25T06:47:44.269Z,18.80
2019-04-25T06:50:13.691Z,18.97
2019-04-25T06:52:44.210Z,19.27
2019-04-25T06:55:34.287Z,19.53
2019-04-25T06:58:10.121Z,19.83
2019-04-25T07:00:40.531Z,20.07
2019-04-25T07:03:04.688Z,20.22
2019-04-25T07:05:40.006Z,20.39
2019-04-25T07:08:04.205Z,20.64
2019-04-25T07:10:33.890Z,20.72
2019-04-25T07:13:04.310Z,20.79
2019-04-25T07:15:34.112Z,20.86
2019-04-25T07:18:04.287Z,20.95
2019-04-25T07:20:34.574Z,20.95
2019-04-25T07:23:03.881Z,20.96
2019-04-25T07:25:36.628Z,20.98
2019-04-25T07:28:29.765Z,21.03
2019-04-25T07:31:13.305Z,21.06
2019-04-25T07:33:53.500Z,21.10
2019-04-25T07:36:23.313Z,21.18
2019-04-25T07:39:05.176Z,21.21
2019-04-25T07:41:24.197Z,21.29
2019-04-25T07:43:54.018Z,21.40
2019-04-25T07:46:23.482Z,21.44
2019-04-25T07:48:53.545Z,21.52
2019-04-25T07:51:23.717Z,21.57
2019-04-25T07:53:53.435Z,21.52
2019-04-25T07:56:24.074Z,21.30
2019-04-25T07:58:54.759Z,21.26
2019-04-25T08:01:24.128Z,21.21
2019-04-25T08:03:53.741Z,21.21
2019-04-25T08:06:24.251Z,21.21
2019-04-25T08:08:54.600Z,21.27
2019-04-25T08:11:23.814Z,21.27
2019-04-25T08:14:15.764Z,21.29
2019-04-25T08:16:46.427Z,21.36
2019-04-25T08:19:15.297Z,21.30
2019-04-25T08:21:45.164Z,21.24
2019-04-25T08:24:14.264Z,21.22
2019-04-25T08:26:43.679Z,21.23
2019-04-25T08:29:13.306Z,21.27
2019-04-25T08:31:43.876Z,21.27
2019-04-25T08:34:14.507Z,21.27
2019-04-25T08:36:45.758Z,21.27
2019-04-25T08:39:14.765Z,21.22
2019-04-25T08:41:45.594Z,21.21
2019-04-25T08:44:14.704Z,21.29
2019-04-25T08:46:46.955Z,21.34
2019-04-25T08:49:38.744Z,20.93
2019-04-25T08:52:08.049Z,20.68
2019-04-25T08:55:00.766Z,20.59
2019-04-25T08:58:06.655Z,20.66
2019-04-25T09:00:59.081Z,20.54
2019-04-25T09:03:24.260Z,20.68
2019-04-25T09:05:53.606Z,20.82
2019-04-25T09:08:23.982Z,20.90
2019-04-25T09:10:53.460Z,20.97
2019-04-25T09:13:23.512Z,20.98
2019-04-25T09:15:54.055Z,21.05
2019-04-25T09:18:24.065Z,21.17
2019-04-25T09:20:53.963Z,21.28
2019-04-25T09:23:23.680Z,21.27
2019-04-25T09:25:54.325Z,21.32
2019-04-25T09:28:23.927Z,21.38
2019-04-25T09:30:54.064Z,21.34
2019-04-25T09:33:23.281Z,21.36
2019-04-25T09:35:52.107Z,21.39
2019-04-25T09:38:21.126Z,21.45
2019-04-25T09:40:50.106Z,21.29
2019-04-25T09:43:19.342Z,21.25
2019-04-25T09:45:58.082Z,21.09
2019-04-25T09:48:31.718Z,21.01
2019-04-25T09:51:07.474Z,21.01
2019-04-25T09:53:43.445Z,21.07
2019-04-25T09:56:17.663Z,21.09
2019-04-25T09:58:53.747Z,21.10
2019-04-25T10:01:23.965Z,21.44
2019-04-25T10:03:54.380Z,21.58
2019-04-25T10:06:23.423Z,21.62
2019-04-25T10:08:54.130Z,21.79
2019-04-25T10:11:23.792Z,21.78
2019-04-25T10:14:11.511Z,21.80
2019-04-25T10:16:40.417Z,21.81
2019-04-25T10:19:09.541Z,21.88
2019-04-25T10:21:39.544Z,21.91
2019-04-25T10:24:08.572Z,21.98
2019-04-25T10:26:38.634Z,21.84
2019-04-25T10:29:08.411Z,21.77
2019-04-25T10:31:37.455Z,21.75
2019-04-25T10:34:06.441Z,21.92
2019-04-25T10:36:35.438Z,21.86
2019-04-25T10:39:10.649Z,21.88
2019-04-25T10:41:36.550Z,22.05
2019-04-25T10:44:06.084Z,22.03
2019-04-25T10:46:34.992Z,21.71
2019-04-25T10:49:04.479Z,21.61
2019-04-25T10:51:34.265Z,21.58
2019-04-25T10:54:04.138Z,21.67
2019-04-25T10:56:33.532Z,21.80
2019-04-25T10:59:04.234Z,21.87
2019-04-25T11:01:33.915Z,21.84
2019-04-25T11:04:08.113Z,21.75
2019-04-25T11:06:37.002Z,21.57
2019-04-25T11:09:08.748Z,21.52
2019-04-25T11:11:37.587Z,21.41
2019-04-25T11:14:07.598Z,21.41
2019-04-25T11:16:35.918Z,21.31
2019-04-25T11:19:05.372Z,21.38
2019-04-25T11:21:34.223Z,21.45
2019-04-25T11:24:04.074Z,21.43
2019-04-25T11:26:34.542Z,21.39
2019-04-25T11:29:03.677Z,21.48
2019-04-25T11:31:37.192Z,21.61
2019-04-25T11:34:06.565Z,21.54
2019-04-25T11:36:35.695Z,21.51
2019-04-25T11:39:30.625Z,21.45
2019-04-25T11:41:59.775Z,21.52
2019-04-25T11:44:28.772Z,21.58
2019-04-25T11:46:57.640Z,21.65
2019-04-25T11:49:26.665Z,21.72
2019-04-25T11:51:55.788Z,21.81
2019-04-25T11:54:24.866Z,21.80
2019-04-25T11:56:54.715Z,21.80
2019-04-25T11:59:24.427Z,21.79
2019-04-25T12:01:54.782Z,21.62
2019-04-25T12:04:25.347Z,21.68
2019-04-25T12:06:53.471Z,21.72
2019-04-25T12:09:23.983Z,21.75
2019-04-25T12:11:54.464Z,21.77
2019-04-25T12:14:25.190Z,21.79
2019-04-25T12:16:56.123Z,21.83
2019-04-25T12:19:34.973Z,21.90
2019-04-25T12:21:58.093Z,21.91
2019-04-25T12:24:27.203Z,21.96
2019-04-25T12:26:56.372Z,22.01
2019-04-25T12:29:25.478Z,22.12
2019-04-25T12:31:54.916Z,22.19
2019-04-25T12:34:24.335Z,22.22
2019-04-25T12:36:54.487Z,22.17
2019-04-25T12:39:24.278Z,22.11
2019-04-25T12:41:54.391Z,22.14
2019-04-25T12:44:41.635Z,22.23
2019-04-25T12:47:14.063Z,22.36
2019-04-25T12:49:43.771Z,22.48
2019-04-25T12:52:13.145Z,22.58
2019-04-25T12:54:43.987Z,22.67
2019-04-25T12:57:14.171Z,22.74
2019-04-25T12:59:45.177Z,22.79
2019-04-25T13:02:14.401Z,22.81
2019-04-25T13:04:44.282Z,22.80
2019-04-25T13:07:13.770Z,22.81
2019-04-25T13:09:42.695Z,22.79
2019-04-25T13:12:14.614Z,22.80
2019-04-25T13:14:42.799Z,22.81
2019-04-25T13:17:11.805Z,22.80
2019-04-25T13:19:43.999Z,22.81
2019-04-25T13:22:13.313Z,22.80
2019-04-25T13:24:42.275Z,22.79
2019-04-25T13:27:18.163Z,22.79
2019-04-25T13:30:11.827Z,22.79
2019-04-25T13:33:02.582Z,22.78
2019-04-25T13:35:36.346Z,22.78
2019-04-25T13:38:05.346Z,22.77
2019-04-25T13:40:34.286Z,22.74
2019-04-25T13:43:04.916Z,22.77
2019-04-25T13:45:34.356Z,22.75
2019-04-25T13:48:04.900Z,22.75
2019-04-25T13:50:34.389Z,22.76
2019-04-25T13:53:03.597Z,22.78
2019-04-25T13:55:32.599Z,22.81
2019-04-25T13:58:01.646Z,22.87
2019-04-25T14:00:30.902Z,22.90
2019-04-25T14:03:00.055Z,22.93
2019-04-25T14:05:29.210Z,22.99
2019-04-25T14:07:58.078Z,23.03
2019-04-25T14:10:27.852Z,23.07
2019-04-25T14:12:57.029Z,23.11
2019-04-25T14:15:27.456Z,23.13
2019-04-25T14:18:15.509Z,23.14
2019-04-25T14:21:24.784Z,23.18
2019-04-25T14:23:54.143Z,23.28
2019-04-25T14:26:23.129Z,23.29
2019-04-25T14:28:52.087Z,23.31
2019-04-25T14:31:39.131Z,23.37
2019-04-25T14:33:55.808Z,23.31
2019-04-25T14:36:27.132Z,23.28
2019-04-25T14:38:55.489Z,23.31
2019-04-25T14:41:24.595Z,23.35
2019-04-25T14:43:53.649Z,23.32
2019-04-25T14:46:22.850Z,23.34
2019-04-25T14:48:51.742Z,23.29
2019-04-25T14:51:20.696Z,23.28
2019-04-25T14:53:49.895Z,23.25
2019-04-25T14:56:28.636Z,23.23
2019-04-25T14:58:57.493Z,23.23
2019-04-25T15:01:26.472Z,23.22
2019-04-25T15:03:55.314Z,23.20
2019-04-25T15:06:24.473Z,23.20
2019-04-25T15:08:54.265Z,23.19
2019-04-25T15:11:24.437Z,23.18
2019-04-25T15:13:52.570Z,23.16
2019-04-25T15:16:22.362Z,23.13
2019-04-25T15:18:52.264Z,23.16
2019-04-25T15:21:21.296Z,23.19
2019-04-25T15:23:59.935Z,23.24
2019-04-25T15:26:21.185Z,23.31
2019-04-25T15:28:50.206Z,23.39
2019-04-25T15:31:19.110Z,23.41
2019-04-25T15:33:48.256Z,23.38
2019-04-25T15:36:28.656Z,23.41
2019-04-25T15:39:16.458Z,23.41
2019-04-25T15:41:50.482Z,23.38
2019-04-25T15:44:35.311Z,23.40
2019-04-25T15:47:05.870Z,23.41
2019-04-25T15:49:34.904Z,23.42
2019-04-25T15:52:04.473Z,23.40
2019-04-25T15:54:33.896Z,23.39
2019-04-25T15:57:02.916Z,23.37
2019-04-25T15:59:32.783Z,23.36
2019-04-25T16:02:07.890Z,23.38
2019-04-25T16:04:32.693Z,23.36
2019-04-25T16:07:01.586Z,23.36
2019-04-25T16:09:31.894Z,23.37
2019-04-25T16:12:00.864Z,23.38
2019-04-25T16:14:29.654Z,23.39
2019-04-25T16:16:58.541Z,23.40
2019-04-25T16:19:28.210Z,23.41
2019-04-25T16:21:57.652Z,23.41
2019-04-25T16:24:26.696Z,23.41
2019-04-25T16:26:55.764Z,23.41
2019-04-25T16:29:24.681Z,23.38
2019-04-25T16:31:53.725Z,23.36
2019-04-25T16:34:22.854Z,23.35
2019-04-25T16:36:51.963Z,23.38
2019-04-25T16:39:24.125Z,23.33
2019-04-25T16:41:53.009Z,23.25
2019-04-25T16:44:22.572Z,23.23
2019-04-25T16:46:51.650Z,23.22
2019-04-25T16:49:20.484Z,23.19
2019-04-25T16:51:49.590Z,23.16
2019-04-25T16:54:18.706Z,23.12
2019-04-25T16:56:47.598Z,23.11
2019-04-25T16:59:16.836Z,23.10
2019-04-25T17:01:46.346Z,23.08
2019-04-25T17:04:19.748Z,23.07
2019-04-25T17:06:47.854Z,23.06
2019-04-25T17:09:16.844Z,23.04
2019-04-25T17:11:46.104Z,22.99
2019-04-25T17:14:39.720Z,22.97
2019-04-25T17:17:33.716Z,22.95
2019-04-25T17:20:18.264Z,22.94
2019-04-25T17:22:47.309Z,22.94
2019-04-25T17:25:18.394Z,22.96
2019-04-25T17:27:47.444Z,22.93
2019-04-25T17:30:16.553Z,22.92
2019-04-25T17:33:04.569Z,22.88
2019-04-25T17:35:52.739Z,22.85
2019-04-25T17:38:33.550Z,22.81
2019-04-25T17:41:02.496Z,22.81
2019-04-25T17:43:31.994Z,22.78
2019-04-25T17:46:02.041Z,22.76
2019-04-25T17:48:31.868Z,22.74
2019-04-25T17:51:00.862Z,22.72
2019-04-25T17:53:29.791Z,22.71
2019-04-25T17:55:58.875Z,22.69
2019-04-25T17:58:27.812Z,22.68
2019-04-25T18:00:56.961Z,22.65
2019-04-25T18:03:26.359Z,22.63
2019-04-25T18:05:55.276Z,22.61
2019-04-25T18:08:24.230Z,22.58
2019-04-25T18:10:53.100Z,22.57
2019-04-25T18:13:22.069Z,22.55
2019-04-25T18:16:09.938Z,22.53
2019-04-25T18:18:53.989Z,22.52
2019-04-25T18:21:23.103Z,22.50
2019-04-25T18:24:10.939Z,22.47
2019-04-25T18:27:10.827Z,22.46
2019-04-25T18:29:40.096Z,22.44
2019-04-25T18:32:08.983Z,22.42
2019-04-25T18:34:44.414Z,22.41
2019-04-25T18:37:37.196Z,22.41
2019-04-25T18:40:12.802Z,22.38
2019-04-25T18:42:51.378Z,22.36
2019-04-25T18:45:24.836Z,22.35
2019-04-25T18:47:53.860Z,22.33
2019-04-25T18:50:25.450Z,22.31
2019-04-25T18:53:22.333Z,22.29
2019-04-25T18:56:03.129Z,22.28
2019-04-25T18:58:57.025Z,22.25
2019-04-25T19:01:54.265Z,22.24
2019-04-25T19:04:30.274Z,22.20
2019-04-25T19:06:59.279Z,22.20
2019-04-25T19:09:28.649Z,22.19
2019-04-25T19:11:57.557Z,22.17
2019-04-25T19:14:27.278Z,22.16
2019-04-25T19:16:56.547Z,22.15
2019-04-25T19:19:25.454Z,22.13
2019-04-25T19:21:54.348Z,22.12
2019-04-25T19:24:23.549Z,22.10
2019-04-25T19:26:52.620Z,22.10
2019-04-25T19:29:21.651Z,22.08
2019-04-25T19:31:52.065Z,22.07
2019-04-25T19:34:21.414Z,22.05
2019-04-25T19:36:51.208Z,22.03
2019-04-25T19:39:21.714Z,22.02
2019-04-25T19:42:09.651Z,22.00
2019-04-25T19:44:38.710Z,21.98
2019-04-25T19:47:07.710Z,21.96
2019-04-25T19:49:36.703Z,21.95
2019-04-25T19:52:05.638Z,21.94
2019-04-25T19:54:34.735Z,21.92
2019-04-25T19:57:03.816Z,21.92
2019-04-25T19:59:33.018Z,21.90
2019-04-25T20:02:06.593Z,21.90
2019-04-25T20:05:03.860Z,21.88
2019-04-25T20:07:38.096Z,21.86
2019-04-25T20:10:25.147Z,21.85
2019-04-25T20:12:54.983Z,21.84
2019-04-25T20:15:23.906Z,21.83
2019-04-25T20:17:54.104Z,21.81
2019-04-25T20:20:23.123Z,21.81
2019-04-25T20:22:52.395Z,21.80
2019-04-25T20:25:21.382Z,21.78
2019-04-25T20:27:50.807Z,21.78
2019-04-25T20:30:19.913Z,21.76
2019-04-25T20:32:49.250Z,21.74
2019-04-25T20:35:18.379Z,21.74
2019-04-25T20:37:47.542Z,21.71
2019-04-25T20:40:16.429Z,21.70
2019-04-25T20:42:45.556Z,21.70
2019-04-25T20:45:15.926Z,21.68
2019-04-25T20:47:46.582Z,21.67
2019-04-25T20:50:15.736Z,21.64
2019-04-25T20:52:44.744Z,21.64
2019-04-25T20:55:13.969Z,21.64
2019-04-25T20:57:42.887Z,21.63
2019-04-25T21:00:12.123Z,21.62
2019-04-25T21:02:41.114Z,21.60
2019-04-25T21:05:10.198Z,21.59
2019-04-25T21:07:39.042Z,21.57
2019-04-25T21:10:08.193Z,21.57
2019-04-25T21:12:37.153Z,21.56
2019-04-25T21:15:31.219Z,21.56
2019-04-25T21:18:13.683Z,21.56
2019-04-25T21:20:42.658Z,21.54
2019-04-25T21:23:11.686Z,21.53
2019-04-25T21:25:40.697Z,21.52
2019-04-25T21:28:09.732Z,21.52
2019-04-25T21:30:38.601Z,21.52
2019-04-25T21:33:07.628Z,21.51
2019-04-25T21:35:36.775Z,21.50
2019-04-25T21:38:05.723Z,21.48
2019-04-25T21:40:46.957Z,21.47
2019-04-25T21:46:00.891Z,21.43
2019-04-25T21:48:30.293Z,21.42
2019-04-25T21:51:01.922Z,21.40
2019-04-25T21:53:30.847Z,21.37
2019-04-25T21:56:00.148Z,21.36
2019-04-25T21:58:29.287Z,21.33
2019-04-25T22:01:09.525Z,21.30
2019-04-25T22:03:38.520Z,21.27
2019-04-25T22:06:07.830Z,21.27
2019-04-25T22:08:36.837Z,21.26
2019-04-25T22:11:05.685Z,21.24
2019-04-25T22:13:34.862Z,21.23
2019-04-25T22:16:04.155Z,21.21
2019-04-25T22:18:33.441Z,21.19
2019-04-25T22:21:04.224Z,21.18
2019-04-25T22:23:33.474Z,21.17
2019-04-25T22:26:02.973Z,21.16
2019-04-25T22:28:32.260Z,21.16
2019-04-25T22:31:03.511Z,21.13
2019-04-25T22:33:45.613Z,21.11
2019-04-25T22:36:20.260Z,21.11
2019-04-25T22:39:08.689Z,21.10
2019-04-25T22:41:38.568Z,21.09
2019-04-25T22:44:09.069Z,21.07
2019-04-25T22:46:38.441Z,21.06
2019-04-25T22:49:07.718Z,21.06
2019-04-25T22:51:36.790Z,21.04
2019-04-25T22:54:06.178Z,21.03
2019-04-25T22:56:35.122Z,21.02
2019-04-25T22:59:04.925Z,21.00
2019-04-25T23:02:07.751Z,20.99
2019-04-25T23:04:50.536Z,20.98
2019-04-25T23:07:19.441Z,20.97
2019-04-25T23:09:50.432Z,20.96
2019-04-25T23:12:19.719Z,20.96
2019-04-25T23:14:48.729Z,20.95
2019-04-25T23:17:17.692Z,20.93
2019-04-25T23:19:46.773Z,20.91
2019-04-25T23:22:15.842Z,20.91
2019-04-25T23:24:51.058Z,20.92
2019-04-25T23:27:34.833Z,20.92
2019-04-25T23:30:05.697Z,20.90
2019-04-25T23:32:35.568Z,20.88
2019-04-25T23:35:14.784Z,20.88
2019-04-25T23:37:35.158Z,20.86
2019-04-25T23:40:03.961Z,20.86
2019-04-25T23:42:32.936Z,20.85
2019-04-25T23:45:02.419Z,20.86
2019-04-25T23:47:31.412Z,20.83
2019-04-25T23:50:00.426Z,20.83
2019-04-25T23:52:29.486Z,20.83
2019-04-25T23:54:58.478Z,20.84
2019-04-25T23:57:27.471Z,20.83
2019-04-25T23:59:56.462Z,20.83
